Allerton, Illinois
Current Conditions -  °F | °C
As of 4:53 PM on Tuesday 25 Nov 2014 (Local Time) from KCMI Reporting Station
Overcast Overcast  
Wind Chill: 19°   Ceiling: 1600
Heat Index: 27°   Visibility: 10mi
Dew Point: 21°   Wind: 7mph
Humidity: 78%   Direction: 300°WNW
Pressure: 30.17"   Gusts: NA
Location:  39.91°N, 87.94°W
Report Text: KCMI 252253Z 30006KT 10SM OVC016 M03/M06 A3017 RMK AO2 SLP226 T10281061 $
Loading
Personal Weather Stations






























Interactive Weather Map New forecast layout! Learn more

10-Day Weather Forecast

Advertisements
Track Severe Weather on mobile